Time;durP1;ratioP1;P1;durP2;ratioP2;P2;SDS_P1;SDS_P2;PMS_P1;PMS_P2;Temp;Humidity;BMP_temperature;BMP_pressure;BME280_temperature;BME280_humidity;BME280_pressure;Samples;Min_cycle;Max_cycle;Signal;HPM_P1;HPM_P2
2023/08/10 00:00:12;;;;;;;0.60;0.60;;;;;;;16.87;89.52;97094.38;5043296;28;20056;-62
2023/08/10 00:02:39;;;;;;;0.70;0.70;;;;;;;16.85;89.41;97091.22;5043273;28;20545;-62
2023/08/10 00:05:06;;;;;;;0.70;0.70;;;;;;;16.80;89.90;97100.03;5043154;28;20076;-62
2023/08/10 00:07:34;;;;;;;0.60;0.60;;;;;;;16.90;88.90;97094.34;5041843;28;20103;-62
2023/08/10 00:10:08;;;;;;;0.70;0.70;;;;;;;16.80;88.71;97092.44;5041618;28;20410;-63
2023/08/10 00:12:38;;;;;;;0.70;0.70;;;;;;;16.27;88.82;97011.63;5041597;28;20138;-63
2023/08/10 00:15:06;;;;;;;0.70;0.70;;;;;;;16.81;87.92;97085.63;5042706;28;20092;-63
2023/08/10 00:17:33;;;;;;;0.70;0.70;;;;;;;16.73;89.31;97086.09;5042484;28;20056;-62
2023/08/10 00:20:00;;;;;;;0.70;0.70;;;;;;;16.81;88.30;97080.03;5042870;28;20392;-62
2023/08/10 00:22:27;;;;;;;0.70;0.70;;;;;;;16.48;87.79;97005.16;5042729;28;20049;-63
2023/08/10 00:24:54;;;;;;;0.70;0.70;;;;;;;16.91;87.40;97067.19;5043166;28;20511;-63
2023/08/10 00:27:20;;;;;;;0.70;0.70;;;;;;;16.72;87.74;97048.13;5043182;28;20049;-63
2023/08/10 00:29:47;;;;;;;0.70;0.70;;;;;;;16.67;87.61;97034.56;5043365;28;20052;-62
2023/08/10 00:32:15;;;;;;;0.70;0.70;;;;;;;16.59;88.79;97048.63;5041571;28;20049;-63
2023/08/10 00:34:42;;;;;;;0.70;0.70;;;;;;;16.61;90.19;97046.19;5043469;28;20052;-62
2023/08/10 00:37:09;;;;;;;0.70;0.70;;;;;;;16.56;90.34;97046.66;5043431;28;20053;-62
2023/08/10 00:39:35;;;;;;;0.70;0.70;;;;;;;16.26;91.13;97015.66;5043383;28;20045;-63
2023/08/10 00:42:02;;;;;;;0.70;0.70;;;;;;;16.39;90.87;97041.91;5041950;28;20056;-62
2023/08/10 00:44:29;;;;;;;0.77;0.77;;;;;;;16.31;91.74;97048.75;5043445;28;20068;-62
2023/08/10 00:46:57;;;;;;;0.80;0.80;;;;;;;15.91;92.44;97010.22;5043009;28;20462;-61
2023/08/10 00:49:24;;;;;;;0.70;0.70;;;;;;;16.17;92.76;97051.59;5056166;28;20053;-61
2023/08/10 00:51:50;;;;;;;0.70;0.70;;;;;;;16.18;92.33;97058.00;5042300;28;20158;-62
2023/08/10 00:54:17;;;;;;;0.75;0.75;;;;;;;16.28;91.78;97057.94;5043501;28;20045;-62
2023/08/10 00:56:44;;;;;;;0.70;0.70;;;;;;;16.31;92.03;97062.72;5042137;28;20045;-61
2023/08/10 00:59:11;;;;;;;0.65;0.65;;;;;;;16.27;90.59;97056.34;5040835;28;20573;-62
2023/08/10 01:01:37;;;;;;;0.70;0.70;;;;;;;16.30;90.95;97072.31;5041029;28;20052;-61
2023/08/10 01:04:04;;;;;;;0.63;0.63;;;;;;;16.34;90.96;97067.50;5042363;28;20052;-62
2023/08/10 01:06:40;;;;;;;0.60;0.60;;;;;;;16.31;90.45;97065.50;5042311;28;20059;-62
2023/08/10 01:09:29;;;;;;;0.70;0.70;;;;;;;16.20;91.15;97061.19;5042738;28;20056;-61
2023/08/10 01:12:01;;;;;;;0.80;0.80;;;;;;;16.20;91.67;97061.19;5041480;28;20053;-61
2023/08/10 01:14:47;;;;;;;0.60;0.60;;;;;;;16.34;92.39;97067.50;5042451;28;20063;-61
2023/08/10 01:17:20;;;;;;;0.70;0.70;;;;;;;16.34;91.99;97056.31;5042396;28;20064;-62
2023/08/10 01:19:50;;;;;;;0.70;0.70;;;;;;;16.37;92.80;97082.66;5043355;28;20307;-62
2023/08/10 01:22:49;;;;;;;0.70;0.70;;;;;;;16.49;91.96;97052.28;5042887;28;20083;-62
2023/08/10 01:25:16;;;;;;;0.70;0.70;;;;;;;16.40;91.86;97037.94;5058094;28;20379;-62
2023/08/10 01:27:44;;;;;;;0.70;0.70;;;;;;;16.49;91.63;97038.28;5058472;28;20063;-62
2023/08/10 01:30:12;;;;;;;0.70;0.70;;;;;;;16.69;90.52;97032.97;5042709;28;20049;-63
2023/08/10 01:32:38;;;;;;;0.70;0.70;;;;;;;16.67;90.10;97035.38;5057657;28;20428;-62
2023/08/10 01:35:06;;;;;;;0.70;0.70;;;;;;;16.07;90.07;96939.88;5042690;28;20072;-62
2023/08/10 01:37:33;;;;;;;0.70;0.70;;;;;;;16.67;89.79;97023.38;5057348;28;20142;-61
2023/08/10 01:40:00;;;;;;;0.80;0.80;;;;;;;16.67;89.61;97017.78;5041861;28;20053;-61
2023/08/10 01:42:27;;;;;;;0.70;0.70;;;;;;;16.59;90.03;97003.88;5042054;28;20063;-61
2023/08/10 01:44:54;;;;;;;0.70;0.70;;;;;;;16.50;89.78;97009.09;5042256;28;20053;-61
2023/08/10 01:47:47;;;;;;;0.60;0.60;;;;;;;16.40;90.79;97009.97;5057719;28;20056;-62
2023/08/10 01:50:17;;;;;;;0.70;0.70;;;;;;;16.29;92.36;97026.00;5043038;28;20061;-61
2023/08/10 01:52:55;;;;;;;0.60;0.60;;;;;;;16.32;92.75;97011.22;5042927;28;20053;-61
2023/08/10 01:55:22;;;;;;;0.70;0.70;;;;;;;16.08;93.27;96991.75;5040627;28;20135;-61
2023/08/10 01:57:49;;;;;;;0.68;0.68;;;;;;;15.71;93.76;96918.94;5041683;28;20055;-61
2023/08/10 02:00:16;;;;;;;0.70;0.70;;;;;;;16.36;93.12;97014.75;5041656;28;20496;-61
2023/08/10 02:02:43;;;;;;;0.70;0.70;;;;;;;16.48;92.29;97027.50;5041132;28;20060;-61
2023/08/10 02:05:12;;;;;;;0.70;0.70;;;;;;;16.45;91.85;97033.94;5041462;28;20474;-61
2023/08/10 02:07:41;;;;;;;0.70;0.70;;;;;;;16.40;92.88;97023.94;5042500;28;20103;-61
2023/08/10 02:10:10;;;;;;;0.60;0.60;;;;;;;16.51;92.18;97026.69;5042448;28;20128;-61
2023/08/10 02:12:37;;;;;;;0.70;0.70;;;;;;;16.55;91.89;97022.66;5042578;28;20127;-62
2023/08/10 02:15:05;;;;;;;0.73;0.73;;;;;;;16.56;92.42;97027.06;5042231;28;20059;-62
2023/08/10 02:17:35;;;;;;;0.80;0.80;;;;;;;16.55;91.48;97022.66;5040905;28;20095;-61
2023/08/10 02:20:13;;;;;;;0.70;0.70;;;;;;;16.50;92.28;97020.28;5041891;28;20503;-62
2023/08/10 02:22:47;;;;;;;0.65;0.65;;;;;;;16.54;91.97;97021.09;5042467;28;20053;-62
2023/08/10 02:25:15;;;;;;;0.70;0.70;;;;;;;16.52;90.01;97029.09;5041946;28;20076;-61
2023/08/10 02:27:42;;;;;;;0.70;0.70;;;;;;;16.49;90.20;97035.50;5042102;28;20542;-61
2023/08/10 02:30:10;;;;;;;0.60;0.60;;;;;;;16.43;90.12;97027.91;5040513;28;20053;-61
2023/08/10 02:32:37;;;;;;;0.63;0.63;;;;;;;16.37;90.81;97037.94;5040950;28;20064;-61
2023/08/10 02:35:05;;;;;;;0.70;0.70;;;;;;;16.25;91.84;97042.00;5042234;28;20041;-63
2023/08/10 02:37:32;;;;;;;0.70;0.70;;;;;;;16.26;91.48;97038.00;5041505;28;20439;-62
2023/08/10 02:39:59;;;;;;;0.60;0.60;;;;;;;16.28;91.95;97046.75;5041700;28;20052;-62
2023/08/10 02:42:26;;;;;;;0.60;0.60;;;;;;;16.29;92.35;97045.56;5041710;28;20049;-62
2023/08/10 02:44:52;;;;;;;0.63;0.63;;;;;;;16.27;93.50;97056.34;5041854;28;20067;-61
2023/08/10 02:47:19;;;;;;;0.73;0.73;;;;;;;16.26;94.04;97049.19;5041651;28;20063;-61
2023/08/10 02:49:46;;;;;;;0.70;0.70;;;;;;;16.32;93.74;97046.75;5056975;28;20052;-62
2023/08/10 02:52:12;;;;;;;0.70;0.70;;;;;;;16.44;93.65;97033.13;5059846;28;20458;-61
2023/08/10 02:54:39;;;;;;;0.70;0.70;;;;;;;16.43;93.61;97028.72;5061591;28;20522;-61
2023/08/10 02:57:06;;;;;;;0.70;0.70;;;;;;;16.48;92.10;97025.53;5061315;28;20045;-62
2023/08/10 02:59:33;;;;;;;0.60;0.60;;;;;;;16.40;92.40;97032.34;5061242;28;20067;-61
2023/08/10 03:02:00;;;;;;;0.70;0.70;;;;;;;15.97;93.44;96980.66;5061907;28;20056;-62
2023/08/10 03:04:26;;;;;;;0.70;0.70;;;;;;;16.22;92.47;97023.25;5061900;28;20450;-62
2023/08/10 03:06:53;;;;;;;0.70;0.70;;;;;;;16.18;93.88;97041.22;5061475;28;20098;-62
2023/08/10 03:09:20;;;;;;;0.70;0.70;;;;;;;16.17;94.91;97039.66;5062079;28;20057;-61
2023/08/10 03:11:47;;;;;;;0.63;0.63;;;;;;;16.26;94.81;97042.78;5059503;28;20451;-61
2023/08/10 03:14:13;;;;;;;0.70;0.70;;;;;;;16.34;92.63;97039.53;5060793;28;20159;-61
2023/08/10 03:16:40;;;;;;;0.70;0.70;;;;;;;16.25;92.34;97036.41;5065358;28;20067;-60
2023/08/10 03:19:07;;;;;;;0.80;0.80;;;;;;;15.50;92.47;96922.63;5064000;28;20527;-61
2023/08/10 03:21:33;;;;;;;0.70;0.70;;;;;;;16.20;92.56;97034.03;5065629;28;20055;-61
2023/08/10 03:24:00;;;;;;;0.60;0.60;;;;;;;15.84;92.94;97027.00;5065384;28;20040;-61
2023/08/10 03:26:27;;;;;;;0.70;0.70;;;;;;;16.13;93.58;97036.88;5065303;28;20053;-62
2023/08/10 03:28:53;;;;;;;0.63;0.63;;;;;;;16.10;94.37;97034.09;5065347;28;20071;-63
2023/08/10 03:31:23;;;;;;;0.70;0.70;;;;;;;16.16;93.64;97029.66;5066066;28;20067;-61
2023/08/10 03:33:50;;;;;;;0.65;0.65;;;;;;;16.16;94.36;97021.28;5065296;28;20061;-62
2023/08/10 03:36:19;;;;;;;0.70;0.70;;;;;;;16.16;94.23;97024.88;5064665;28;20072;-62
2023/08/10 03:38:45;;;;;;;0.60;0.60;;;;;;;16.23;94.94;97027.63;5065137;28;20071;-61
2023/08/10 03:41:12;;;;;;;0.70;0.70;;;;;;;16.32;95.37;97014.00;5063068;28;20063;-61
2023/08/10 03:43:39;;;;;;;0.70;0.70;;;;;;;16.33;95.50;97020.38;5064259;28;20056;-61
2023/08/10 03:46:06;;;;;;;0.60;0.60;;;;;;;16.41;94.93;97003.16;5064088;28;20060;-62
2023/08/10 03:48:34;;;;;;;0.70;0.70;;;;;;;16.52;94.77;97012.31;5057537;28;20574;-61
2023/08/10 03:51:01;;;;;;;0.70;0.70;;;;;;;16.61;93.33;97015.44;5044478;28;20080;-61
2023/08/10 03:53:27;;;;;;;0.60;0.60;;;;;;;16.64;93.18;97017.41;5044893;28;20136;-61
2023/08/10 03:55:54;;;;;;;0.70;0.70;;;;;;;15.94;92.41;96911.63;5044510;28;20056;-61
2023/08/10 03:58:21;;;;;;;0.70;0.70;;;;;;;16.68;90.77;97016.59;5042531;28;20044;-61
2023/08/10 04:00:47;;;;;;;0.70;0.70;;;;;;;16.68;90.32;97025.78;5044102;28;20053;-61
2023/08/10 04:03:15;;;;;;;0.65;0.65;;;;;;;16.61;90.60;97021.03;5044242;28;20048;-61
2023/08/10 04:05:42;;;;;;;0.60;0.60;;;;;;;16.67;91.25;97023.38;5044394;28;20510;-62
2023/08/10 04:08:10;;;;;;;0.60;0.60;;;;;;;16.70;91.29;97022.56;5042330;28;20056;-61
2023/08/10 04:10:37;;;;;;;0.70;0.70;;;;;;;16.72;91.43;97025.75;5042961;28;20052;-61
2023/08/10 04:13:04;;;;;;;0.70;0.70;;;;;;;16.87;90.32;97027.22;5043879;28;20590;-61
2023/08/10 04:15:31;;;;;;;0.70;0.70;;;;;;;16.86;89.94;97028.44;5042637;28;20045;-62
2023/08/10 04:17:58;;;;;;;0.60;0.60;;;;;;;16.90;90.03;97026.44;5030594;28;20049;-62
2023/08/10 04:20:25;;;;;;;0.60;0.60;;;;;;;17.01;89.57;97022.31;5044278;28;20064;-62
2023/08/10 04:22:52;;;;;;;0.70;0.70;;;;;;;17.03;89.44;97021.91;5043690;28;20442;-61
2023/08/10 04:25:19;;;;;;;0.70;0.70;;;;;;;17.00;88.63;97042.31;5043439;28;20057;-62
2023/08/10 04:27:47;;;;;;;0.70;0.70;;;;;;;16.78;88.49;96996.13;5042553;28;20052;-62
2023/08/10 04:30:14;;;;;;;0.70;0.70;;;;;;;17.02;89.47;97029.53;5043949;28;20482;-62
2023/08/10 04:32:40;;;;;;;0.70;0.70;;;;;;;17.03;89.21;97019.09;5043823;28;20053;-62
2023/08/10 04:35:12;;;;;;;0.70;0.70;;;;;;;17.11;87.77;97032.63;5043532;28;20049;-62
2023/08/10 04:37:39;;;;;;;0.70;0.70;;;;;;;16.98;88.62;97022.34;5042495;28;20049;-63
2023/08/10 04:40:09;;;;;;;0.70;0.70;;;;;;;16.99;89.80;97029.53;5044167;28;20405;-62
2023/08/10 04:42:39;;;;;;;0.65;0.65;;;;;;;16.63;90.19;96973.88;5042391;28;20055;-62
2023/08/10 04:45:09;;;;;;;0.70;0.70;;;;;;;16.54;91.04;96975.53;5042691;28;20061;-62
2023/08/10 04:47:37;;;;;;;0.65;0.65;;;;;;;16.97;91.01;97026.34;5044278;28;20160;-62
2023/08/10 04:50:04;;;;;;;0.70;0.70;;;;;;;17.13;89.00;97029.41;5060548;28;20106;-62
2023/08/10 04:52:30;;;;;;;0.70;0.70;;;;;;;16.89;88.95;96974.44;5063505;28;20048;-62
2023/08/10 04:54:57;;;;;;;0.70;0.70;;;;;;;17.34;88.19;97034.84;5063946;28;20439;-61
2023/08/10 04:57:24;;;;;;;0.70;0.70;;;;;;;17.30;86.79;97011.66;5063686;28;20055;-61
2023/08/10 04:59:50;;;;;;;0.65;0.65;;;;;;;17.62;86.62;97040.19;5062222;28;20048;-62
2023/08/10 05:02:17;;;;;;;0.70;0.70;;;;;;;17.88;85.86;97039.47;5063745;28;20048;-61
2023/08/10 05:04:44;;;;;;;0.70;0.70;;;;;;;18.06;84.19;97021.25;5063703;28;20044;-61
2023/08/10 05:07:11;;;;;;;0.70;0.70;;;;;;;18.39;83.63;97039.25;5062340;28;20051;-61
2023/08/10 05:09:38;;;;;;;0.70;0.70;;;;;;;18.61;82.53;97029.31;5063198;28;20507;-62
2023/08/10 05:12:21;;;;;;;0.80;0.80;;;;;;;18.81;81.27;97032.25;5051542;28;20139;-62
2023/08/10 05:14:48;;;;;;;0.80;0.80;;;;;;;19.05;79.62;97033.84;5042993;28;20971;-62
2023/08/10 05:17:15;;;;;;;0.75;0.75;;;;;;;19.33;77.32;97034.19;5044318;28;20048;-61
2023/08/10 05:19:42;;;;;;;0.77;0.77;;;;;;;19.03;77.61;96988.56;5062535;28;20692;-61
2023/08/10 05:22:09;;;;;;;0.70;0.70;;;;;;;19.43;78.05;97036.03;5061347;28;20052;-62
2023/08/10 05:24:36;;;;;;;0.80;0.80;;;;;;;19.50;78.50;97035.91;5062898;28;20052;-62
2023/08/10 05:27:04;;;;;;;0.80;0.80;;;;;;;19.78;78.17;97028.16;5061914;28;20081;-61
2023/08/10 05:29:30;;;;;;;0.75;0.75;;;;;;;19.41;78.51;96996.31;5062474;28;20140;-62
2023/08/10 05:31:58;;;;;;;0.80;0.80;;;;;;;19.81;78.20;97027.28;5062609;28;20872;-61
2023/08/10 05:34:24;;;;;;;0.80;0.80;;;;;;;19.95;77.09;97004.53;5062589;28;20045;-61
2023/08/10 05:36:51;;;;;;;0.80;0.80;;;;;;;20.43;75.91;97032.88;5062479;28;20045;-63
2023/08/10 05:39:18;;;;;;;0.90;0.90;;;;;;;20.73;74.04;97039.03;5062709;28;20074;-60
2023/08/10 05:41:45;;;;;;;0.80;0.80;;;;;;;21.00;72.92;97036.00;5062615;28;20124;-62
2023/08/10 05:44:12;;;;;;;0.80;0.80;;;;;;;21.28;70.90;97029.66;5061461;28;20049;-61
2023/08/10 05:46:39;;;;;;;1.00;1.00;;;;;;;21.04;70.75;96991.63;4867278;28;5002409;-60
2023/08/10 05:49:05;;;;;;;0.80;0.80;;;;;;;21.47;70.89;97025.94;5056536;28;20053;-61
2023/08/10 05:51:32;;;;;;;0.90;0.90;;;;;;;21.37;71.89;97024.19;5042356;28;20153;-60
2023/08/10 05:53:59;;;;;;;0.82;0.82;;;;;;;21.40;71.26;97028.97;5043233;28;20114;-61
2023/08/10 05:56:25;;;;;;;1.00;1.00;;;;;;;21.09;72.48;97016.47;5042549;28;20153;-61
2023/08/10 05:58:52;;;;;;;0.90;0.90;;;;;;;20.71;74.67;97040.66;5042131;28;20049;-61
2023/08/10 06:01:19;;;;;;;0.88;0.88;;;;;;;20.12;75.81;96945.09;5041794;28;20139;-61
2023/08/10 06:04:04;;;;;;;0.90;0.90;;;;;;;21.33;73.58;97028.34;5076376;27;1353187;-57
2023/08/10 06:06:31;;;;;;;0.90;0.90;;;;;;;21.18;72.19;96940.59;5113033;27;20548;-63
2023/08/10 06:08:58;;;;;;;0.90;0.90;;;;;;;21.86;70.57;97020.09;5077502;28;20075;-59
2023/08/10 06:11:25;;;;;;;0.93;0.93;;;;;;;21.61;72.62;97025.56;5077399;28;20055;-59
2023/08/10 06:14:11;;;;;;;0.90;0.90;;;;;;;20.84;73.20;96955.09;5087456;28;20611;-65
2023/08/10 06:16:39;;;;;;;0.90;0.90;;;;;;;21.31;72.64;96989.34;5096182;28;20048;-59
2023/08/10 06:19:06;;;;;;;0.80;0.80;;;;;;;21.53;71.64;96964.22;5088127;28;20044;-58
2023/08/10 06:21:33;;;;;;;0.90;0.90;;;;;;;20.60;70.92;96798.06;5094291;28;20051;-60
2023/08/10 06:24:00;;;;;;;0.98;0.98;;;;;;;21.88;70.11;96968.88;5095934;28;20358;-61
2023/08/10 06:26:26;;;;;;;1.00;1.00;;;;;;;22.30;69.69;97009.97;5088517;28;20058;-60
2023/08/10 06:28:53;;;;;;;0.90;0.90;;;;;;;22.52;69.30;97010.16;5086137;28;20051;-59
2023/08/10 06:31:20;;;;;;;1.00;1.00;;;;;;;22.48;68.87;97009.44;5095136;28;20047;-62
2023/08/10 06:33:46;;;;;;;0.95;0.95;;;;;;;22.57;68.28;97029.34;5081284;28;20055;-60
2023/08/10 06:36:14;;;;;;;0.85;0.85;;;;;;;22.65;67.63;97023.06;5097430;28;20074;-60
2023/08/10 06:38:41;;;;;;;1.00;1.00;;;;;;;22.05;66.87;96892.19;5096419;28;20044;-62
2023/08/10 06:41:08;;;;;;;0.90;0.90;;;;;;;22.29;66.12;96918.84;5097277;28;20060;-63
2023/08/10 06:43:34;;;;;;;1.05;1.05;;;;;;;22.86;64.76;96973.59;5095396;28;20055;-61
2023/08/10 06:46:01;;;;;;;1.00;1.00;;;;;;;23.65;64.49;97019.34;5100371;28;20051;-64
2023/08/10 06:48:28;;;;;;;1.10;1.10;;;;;;;23.98;63.29;97009.31;5093844;28;20051;-59
2023/08/10 06:50:55;;;;;;;0.90;0.90;;;;;;;23.76;60.22;97016.94;5085184;28;20055;-60
2023/08/10 06:53:21;;;;;;;1.17;1.17;;;;;;;22.80;60.25;96856.72;5097266;28;20082;-64
2023/08/10 06:55:50;;;;;;;1.00;1.00;;;;;;;23.83;58.95;97017.50;5097539;28;20056;-60
2023/08/10 06:58:17;;;;;;;1.10;1.10;;;;;;;23.38;58.85;96945.56;5076560;28;20057;-65
2023/08/10 07:00:47;;;;;;;1.20;1.20;;;;;;;23.97;58.30;97013.41;5077108;28;20071;-60
2023/08/10 07:03:14;;;;;;;1.00;1.00;;;;;;;23.85;56.49;96977.44;5091075;28;20246;-62
2023/08/10 07:05:42;;;;;;;1.00;1.00;;;;;;;24.27;55.15;97004.19;5096350;28;20050;-61
2023/08/10 07:08:09;;;;;;;1.20;1.20;;;;;;;24.16;55.44;96978.31;5095315;28;20051;-59
2023/08/10 07:10:39;;;;;;;1.10;1.10;;;;;;;24.57;55.50;97002.63;5094235;28;20052;-61
2023/08/10 07:13:05;;;;;;;1.10;1.10;;;;;;;24.78;55.13;97008.31;5093375;28;20051;-59
2023/08/10 07:15:32;;;;;;;1.10;1.10;;;;;;;24.86;54.86;97006.78;5081413;28;20050;-60
2023/08/10 07:18:00;;;;;;;1.10;1.10;;;;;;;24.94;53.97;96995.94;5083629;28;20484;-63
2023/08/10 07:20:31;;;;;;;1.00;1.00;;;;;;;24.68;53.77;96950.00;5082659;28;20044;-59
2023/08/10 07:22:57;;;;;;;1.10;1.10;;;;;;;25.26;53.52;97018.88;5080432;28;20052;-59
2023/08/10 07:25:24;;;;;;;1.27;1.27;;;;;;;25.71;52.01;97004.03;5080650;28;20051;-59
2023/08/10 07:27:51;;;;;;;1.20;1.20;;;;;;;25.98;51.41;97000.44;5075288;28;20705;-63
2023/08/10 07:30:18;;;;;;;1.20;1.20;;;;;;;26.08;51.00;96965.13;5066070;28;20049;-60
2023/08/10 07:32:44;;;;;;;1.60;1.60;;;;;;;26.93;50.41;97002.53;5073262;28;20044;-60
2023/08/10 07:35:11;;;;;;;1.50;1.50;;;;;;;27.26;48.36;96996.84;5079586;28;20524;-67
2023/08/10 07:37:40;;;;;;;1.60;1.60;;;;;;;27.14;48.51;96926.75;5065128;28;20052;-60
2023/08/10 07:40:11;;;;;;;1.60;1.60;;;;;;;27.77;47.92;96981.19;5073194;28;20134;-62
2023/08/10 07:42:38;;;;;;;1.55;1.55;;;;;;;27.75;46.01;96982.97;5080967;28;20135;-62
2023/08/10 07:45:06;;;;;;;1.60;1.60;;;;;;;28.17;47.13;97004.34;5081721;28;20268;-60
2023/08/10 07:47:32;;;;;;;1.60;1.60;;;;;;;28.14;46.54;96976.81;5080668;28;20048;-62
2023/08/10 07:49:59;;;;;;;1.80;1.80;;;;;;;28.32;45.64;96997.88;5081769;28;20063;-60
2023/08/10 07:52:26;;;;;;;1.65;1.65;;;;;;;28.42;45.81;96997.31;5078402;28;20169;-62
2023/08/10 07:54:54;;;;;;;1.60;1.60;;;;;;;28.67;43.59;96999.63;5082740;28;20135;-60
2023/08/10 07:57:21;;;;;;;1.60;1.60;;;;;;;28.77;43.79;97011.72;5083803;28;20062;-60
2023/08/10 07:59:48;;;;;;;1.52;1.52;;;;;;;27.78;43.32;96794.09;5082884;28;20054;-61
2023/08/10 08:02:15;;;;;;;1.60;1.60;;;;;;;28.67;41.93;96961.75;5075770;28;20062;-62
2023/08/10 08:04:41;;;;;;;1.88;1.88;;;;;;;28.92;42.07;97001.06;5074968;28;20454;-60
2023/08/10 08:07:08;;;;;;;1.58;1.58;;;;;;;28.12;41.86;96911.00;5074286;28;20055;-61
2023/08/10 08:09:35;;;;;;;1.45;1.45;;;;;;;27.65;42.89;96962.31;5079655;28;20123;-66
2023/08/10 08:12:02;;;;;;;1.45;1.45;;;;;;;27.62;43.43;97020.22;5081628;28;20048;-58
2023/08/10 08:14:29;;;;;;;1.38;1.38;;;;;;;26.39;42.88;97014.00;5082273;28;20082;-58
2023/08/10 08:16:55;;;;;;;1.30;1.30;;;;;;;26.50;42.31;96951.78;5079692;28;20424;-60
2023/08/10 08:19:22;;;;;;;1.40;1.40;;;;;;;27.04;42.14;96991.44;5068141;28;20055;-59
2023/08/10 08:21:49;;;;;;;1.58;1.58;;;;;;;26.56;43.12;96958.41;5076609;28;20058;-65
2023/08/10 08:24:17;;;;;;;1.42;1.42;;;;;;;24.07;43.10;96666.91;5078874;28;20086;-68
2023/08/10 08:26:43;;;;;;;1.50;1.50;;;;;;;26.17;43.95;97030.44;5075423;28;20634;-68
2023/08/10 08:29:11;;;;;;;1.10;1.10;;;;;;;25.83;43.91;96971.09;5065855;28;20136;-66
2023/08/10 08:31:38;;;;;;;1.30;1.30;;;;;;;24.87;43.78;96849.63;5081580;28;20261;-66
2023/08/10 08:34:04;;;;;;;1.30;1.30;;;;;;;25.74;45.41;96985.28;5075772;28;20133;-64
2023/08/10 08:36:31;;;;;;;1.30;1.30;;;;;;;26.39;44.24;97025.38;5061521;28;20048;-61
2023/08/10 08:38:58;;;;;;;1.33;1.33;;;;;;;26.48;43.08;97011.13;5070854;28;20052;-62
2023/08/10 08:41:33;;;;;;;1.30;1.30;;;;;;;26.58;41.92;96975.75;5081273;28;20051;-60
2023/08/10 08:44:00;;;;;;;1.60;1.60;;;;;;;27.37;41.65;96997.94;5074646;28;20059;-66
2023/08/10 08:46:30;;;;;;;1.38;1.38;;;;;;;26.58;42.62;97015.56;5081047;28;20736;-59
2023/08/10 08:48:57;;;;;;;1.30;1.30;;;;;;;26.96;41.65;97007.25;5082011;28;20062;-62
2023/08/10 08:51:24;;;;;;;1.42;1.42;;;;;;;26.53;40.51;96973.56;5080370;28;20040;-56
2023/08/10 08:53:52;;;;;;;1.25;1.25;;;;;;;26.39;41.25;97014.00;5078031;28;20074;-57
2023/08/10 08:56:19;;;;;;;1.20;1.20;;;;;;;26.26;40.93;97010.53;5079768;28;20051;-62
2023/08/10 08:58:45;;;;;;;1.23;1.23;;;;;;;25.67;41.17;96912.59;5082624;28;20050;-60
2023/08/10 09:01:13;;;;;;;1.40;1.40;;;;;;;26.30;41.79;97011.19;5081606;28;20059;-59
2023/08/10 09:03:40;;;;;;;1.35;1.35;;;;;;;27.02;41.49;97011.03;5077092;28;20079;-63
2023/08/10 09:06:07;;;;;;;1.30;1.30;;;;;;;27.43;40.56;97024.44;5081380;28;20122;-64
2023/08/10 09:08:35;;;;;;;1.50;1.50;;;;;;;27.16;40.82;96964.03;5065666;28;20394;-63
2023/08/10 09:11:02;;;;;;;1.20;1.20;;;;;;;27.15;41.05;97025.81;5082346;28;20375;-60
2023/08/10 09:13:29;;;;;;;1.52;1.52;;;;;;;26.46;39.97;97013.69;5078502;28;20083;-65
2023/08/10 09:16:10;;;;;;;1.30;1.30;;;;;;;26.41;42.21;97005.81;5082263;28;20055;-60
2023/08/10 09:18:38;;;;;;;1.48;1.48;;;;;;;27.44;41.76;97014.63;5082768;28;20048;-61
2023/08/10 09:21:22;;;;;;;1.60;1.60;;;;;;;27.32;40.32;96975.03;5079899;28;20052;-63
2023/08/10 09:23:52;;;;;;;;;;;;;;;27.09;40.48;97010.69;5082525;28;20086;-64
2023/08/10 09:26:20;;;;;;;1.50;1.50;;;;;;;26.37;41.18;96954.03;5081361;28;20464;-60
2023/08/10 09:28:48;;;;;;;1.30;1.30;;;;;;;27.04;41.23;97014.19;5079533;28;20056;-65
2023/08/10 09:31:23;;;;;;;1.35;1.35;;;;;;;26.57;41.49;96979.88;5080904;28;20080;-67
2023/08/10 09:33:58;;;;;;;1.55;1.55;;;;;;;27.02;41.35;96982.59;5080148;28;20142;-58
2023/08/10 09:36:26;;;;;;;1.60;1.60;;;;;;;27.05;41.22;96995.84;5078870;28;20681;-63
2023/08/10 09:38:54;;;;;;;1.30;1.30;;;;;;;25.53;40.75;96719.53;5079856;28;20047;-62
2023/08/10 09:41:22;;;;;;;1.60;1.60;;;;;;;26.88;40.25;96994.66;5079547;28;20058;-60
2023/08/10 09:43:50;;;;;;;1.38;1.38;;;;;;;26.34;41.75;96989.06;5082248;28;20098;-56
2023/08/10 09:46:17;;;;;;;1.40;1.40;;;;;;;26.02;42.92;96982.00;5078711;28;20510;-61
2023/08/10 09:48:52;;;;;;;1.40;1.40;;;;;;;26.24;42.47;96953.44;5073616;28;20108;-62
2023/08/10 09:51:19;;;;;;;1.30;1.30;;;;;;;26.71;42.49;96984.91;5066512;28;20068;-60
2023/08/10 09:53:46;;;;;;;1.23;1.23;;;;;;;25.83;42.84;96993.81;5063616;28;20070;-63
2023/08/10 09:56:12;;;;;;;1.35;1.35;;;;;;;26.03;43.41;96985.63;5080069;28;20807;-61
2023/08/10 09:58:41;;;;;;;1.30;1.30;;;;;;;26.16;42.86;96989.09;5070109;28;20056;-61
2023/08/10 10:01:09;;;;;;;1.23;1.23;;;;;;;25.80;42.66;96989.09;5061143;28;21432;-63
2023/08/10 10:03:42;;;;;;;1.17;1.17;;;;;;;25.12;43.42;96968.44;5080180;28;20056;-62
2023/08/10 10:06:11;;;;;;;1.20;1.20;;;;;;;23.62;43.88;96774.19;5081251;28;20048;-60
2023/08/10 10:08:39;;;;;;;1.20;1.20;;;;;;;25.15;43.52;96944.81;5080482;28;20129;-59
2023/08/10 10:11:13;;;;;;;1.13;1.13;;;;;;;25.78;42.90;96986.69;5079123;28;20124;-63
2023/08/10 10:13:41;;;;;;;1.20;1.20;;;;;;;25.00;44.48;97002.56;5080172;28;20048;-63
2023/08/10 10:16:10;;;;;;;1.10;1.10;;;;;;;24.97;44.75;97001.47;5080050;28;20048;-60
2023/08/10 10:18:37;;;;;;;1.40;1.40;;;;;;;25.48;43.11;97018.84;5079237;28;20048;-62
2023/08/10 10:21:04;;;;;;;1.08;1.08;;;;;;;25.66;42.59;97012.38;5077514;28;20047;-60
2023/08/10 10:23:31;;;;;;;1.20;1.20;;;;;;;26.00;43.51;97021.47;5074838;28;20044;-62
2023/08/10 10:26:00;;;;;;;1.13;1.13;;;;;;;25.71;48.28;97015.41;5072687;28;20066;-60
2023/08/10 10:28:31;;;;;;;1.10;1.10;;;;;;;25.10;48.74;96919.13;5077020;28;20510;-65
2023/08/10 10:31:04;;;;;;;1.10;1.10;;;;;;;25.75;48.69;97009.56;5075839;28;20067;-61
2023/08/10 10:33:32;;;;;;;1.20;1.20;;;;;;;25.66;48.86;96998.19;5065676;28;20066;-65
2023/08/10 10:36:09;;;;;;;1.30;1.30;;;;;;;25.13;48.95;96964.34;5075705;28;20213;-61
2023/08/10 10:39:02;;;;;;;1.20;1.20;;;;;;;25.40;47.64;96955.16;5065431;28;20052;-63
2023/08/10 10:41:36;;;;;;;1.30;1.30;;;;;;;26.15;46.10;96996.03;5078378;28;20049;-60
2023/08/10 10:44:04;;;;;;;1.30;1.30;;;;;;;26.10;47.42;97002.34;5078482;28;20378;-60
2023/08/10 10:46:31;;;;;;;1.30;1.30;;;;;;;26.21;47.77;97002.66;5079476;28;20613;-63
2023/08/10 10:48:59;;;;;;;1.40;1.40;;;;;;;26.29;48.18;97009.59;5080558;28;20237;-60
2023/08/10 10:51:28;;;;;;;1.20;1.20;;;;;;;26.23;48.51;97002.97;5081366;28;20046;-64
2023/08/10 10:53:55;;;;;;;1.50;1.50;;;;;;;26.28;48.88;97027.91;5082980;28;20059;-62
2023/08/10 10:56:24;;;;;;;1.30;1.30;;;;;;;25.40;50.26;96960.81;5077428;28;20551;-62
2023/08/10 10:58:51;;;;;;;1.20;1.20;;;;;;;25.97;49.72;97010.22;5078576;28;20060;-60
2023/08/10 11:01:19;;;;;;;1.30;1.30;;;;;;;26.19;47.87;97010.88;5065977;28;20055;-61
2023/08/10 11:03:51;;;;;;;1.35;1.35;;;;;;;26.28;47.80;97005.97;5069900;28;20078;-62
2023/08/10 11:06:20;;;;;;;1.50;1.50;;;;;;;26.22;47.25;97009.94;5081787;28;20059;-63
2023/08/10 11:08:51;;;;;;;1.23;1.23;;;;;;;25.93;47.44;96990.50;5082089;28;20079;-62
2023/08/10 11:11:18;;;;;;;1.20;1.20;;;;;;;26.07;47.72;97000.44;5081514;28;20082;-72
2023/08/10 11:13:45;;;;;;;1.40;1.40;;;;;;;26.06;47.49;97010.25;5078411;28;20040;-61
2023/08/10 11:16:12;;;;;;;1.17;1.17;;;;;;;25.81;47.64;97013.34;5082575;28;20066;-60
2023/08/10 11:18:42;;;;;;;1.40;1.40;;;;;;;25.71;47.40;96969.19;5052205;28;20063;-61
2023/08/10 11:21:09;;;;;;;1.40;1.40;;;;;;;25.83;47.05;97005.16;5042268;28;20553;-62
2023/08/10 11:23:38;;;;;;;1.40;1.40;;;;;;;25.45;48.05;96962.25;5060727;28;20426;-62
2023/08/10 11:26:05;;;;;;;1.27;1.27;;;;;;;25.86;48.03;97009.91;5061525;28;20047;-59
2023/08/10 11:28:33;;;;;;;1.27;1.27;;;;;;;25.74;48.25;97016.50;5062857;28;20053;-59
2023/08/10 11:31:04;;;;;;;1.20;1.20;;;;;;;25.51;49.02;97011.41;5063444;28;20074;-61
2023/08/10 11:33:31;;;;;;;1.20;1.20;;;;;;;25.05;49.94;96951.72;5045145;28;20063;-61
2023/08/10 11:35:58;;;;;;;1.10;1.10;;;;;;;25.11;50.81;96969.69;5064614;28;20044;-60
2023/08/10 11:38:26;;;;;;;1.10;1.10;;;;;;;25.03;51.92;97022.28;5062624;28;20127;-63